createdAt,value
2023-05-05T00:00:21.733Z,50.40
2023-05-05T00:02:52.832Z,50.47
2023-05-05T00:05:24.822Z,50.76
2023-05-05T00:07:55.203Z,50.73
2023-05-05T00:10:26.035Z,51.25
2023-05-05T00:12:56.574Z,51.56
2023-05-05T00:15:29.784Z,51.50
2023-05-05T00:18:00.618Z,51.62
2023-05-05T00:20:31.373Z,51.75
2023-05-05T00:23:01.845Z,51.95
2023-05-05T00:25:32.505Z,51.97
2023-05-05T00:28:03.105Z,52.09
2023-05-05T00:30:36.419Z,52.12
2023-05-05T00:33:07.026Z,52.09
2023-05-05T00:35:37.665Z,52.29
2023-05-05T00:38:08.167Z,52.11
2023-05-05T00:40:40.209Z,52.30
2023-05-05T00:43:10.554Z,52.66
2023-05-05T00:45:47.810Z,52.60
2023-05-05T00:48:20.096Z,52.51
2023-05-05T00:50:50.864Z,53.02
2023-05-05T00:53:21.306Z,53.42
2023-05-05T00:55:52.225Z,53.57
2023-05-05T00:58:23.062Z,53.41
2023-05-05T01:00:56.656Z,54.20
2023-05-05T01:03:27.165Z,54.33
2023-05-05T01:06:15.509Z,54.85
2023-05-05T01:09:04.542Z,54.55
2023-05-05T01:11:45.810Z,55.05
2023-05-05T01:14:19.234Z,55.15
2023-05-05T01:17:02.297Z,55.52
2023-05-05T01:19:56.517Z,55.52
2023-05-05T01:22:37.711Z,55.99
2023-05-05T01:25:44.176Z,56.12
2023-05-05T01:28:30.519Z,56.27
2023-05-05T01:31:12.687Z,56.90
2023-05-05T01:33:52.667Z,57.18
2023-05-05T01:36:29.606Z,57.25
2023-05-05T01:39:03.913Z,57.32
2023-05-05T01:41:43.936Z,57.75
2023-05-05T01:44:16.845Z,57.67
2023-05-05T01:46:51.091Z,57.81
2023-05-05T01:49:24.789Z,58.07
2023-05-05T01:51:55.749Z,58.34
2023-05-05T01:54:27.448Z,58.36
2023-05-05T01:57:00.407Z,58.47
2023-05-05T01:59:31.936Z,59.04
2023-05-05T02:02:05.754Z,59.08
2023-05-05T02:04:44.349Z,59.67
2023-05-05T02:07:17.122Z,59.83
2023-05-05T02:09:48.169Z,59.89
2023-05-05T02:12:19.769Z,59.67
2023-05-05T02:14:50.660Z,59.72
2023-05-05T02:17:24.289Z,59.87
2023-05-05T02:19:59.107Z,60.15
2023-05-05T02:22:29.629Z,60.57
2023-05-05T02:25:00.109Z,60.61
2023-05-05T02:27:31.593Z,60.87
2023-05-05T02:30:07.693Z,61.81
2023-05-05T02:32:43.173Z,61.88
2023-05-05T02:35:21.320Z,62.95
2023-05-05T02:38:01.977Z,63.15
2023-05-05T02:40:39.417Z,63.44
2023-05-05T02:43:14.002Z,63.72
2023-05-05T02:45:44.393Z,63.91
2023-05-05T02:48:15.754Z,63.50
2023-05-05T02:50:49.036Z,63.55
2023-05-05T02:53:30.296Z,63.83
2023-05-05T02:56:11.342Z,64.12
2023-05-05T02:58:56.952Z,63.72
2023-05-05T03:01:51.426Z,63.88
2023-05-05T03:04:30.696Z,63.77
2023-05-05T03:07:13.576Z,64.01
2023-05-05T03:09:53.267Z,64.16
2023-05-05T03:12:30.611Z,65.09
2023-05-05T03:15:13.234Z,65.13
2023-05-05T03:17:45.116Z,65.01
2023-05-05T03:20:17.948Z,65.34
2023-05-05T03:22:54.970Z,65.30
2023-05-05T03:25:25.754Z,65.56
2023-05-05T03:27:56.614Z,65.77
2023-05-05T03:30:27.208Z,65.91
2023-05-05T03:32:57.729Z,65.85
2023-05-05T03:35:28.832Z,65.90
2023-05-05T03:38:01.870Z,65.79
2023-05-05T03:40:43.095Z,66.23
2023-05-05T03:43:16.525Z,66.07
2023-05-05T03:45:47.228Z,65.81
2023-05-05T03:48:17.983Z,66.13
2023-05-05T03:50:48.594Z,66.08
2023-05-05T03:53:23.320Z,66.64
2023-05-05T03:55:54.771Z,66.37
2023-05-05T03:58:25.426Z,66.81
2023-05-05T04:00:55.925Z,66.58
2023-05-05T04:03:26.603Z,67.08
2023-05-05T04:05:57.108Z,68.47
2023-05-05T04:08:30.671Z,68.33
2023-05-05T04:11:02.619Z,67.37
2023-05-05T04:13:34.567Z,67.27
2023-05-05T04:16:06.218Z,67.50
2023-05-05T04:18:36.719Z,67.23
2023-05-05T04:21:08.401Z,67.83
2023-05-05T04:23:41.546Z,68.00
2023-05-05T04:26:12.181Z,68.25
2023-05-05T04:28:43.092Z,68.57
2023-05-05T04:31:13.853Z,69.13
2023-05-05T04:33:46.389Z,69.16
2023-05-05T04:36:19.161Z,68.68
2023-05-05T04:38:53.505Z,68.41
2023-05-05T04:41:24.183Z,68.04
2023-05-05T04:43:55.318Z,68.43
2023-05-05T04:46:25.741Z,68.31
2023-05-05T04:48:56.575Z,68.72
2023-05-05T04:51:27.861Z,68.77
2023-05-05T04:54:01.173Z,69.20
2023-05-05T04:56:34.398Z,69.35
2023-05-05T04:59:04.940Z,69.75
2023-05-05T05:01:38.347Z,70.62
2023-05-05T05:04:08.988Z,70.39
2023-05-05T05:06:39.615Z,71.07
2023-05-05T05:09:12.817Z,71.26
2023-05-05T05:11:43.263Z,71.74
2023-05-05T05:14:13.788Z,71.92
2023-05-05T05:16:44.322Z,71.46
2023-05-05T05:19:14.854Z,71.55
2023-05-05T05:21:45.238Z,71.57
2023-05-05T05:24:18.454Z,71.52
2023-05-05T05:26:49.063Z,72.25
2023-05-05T05:29:20.482Z,72.32
2023-05-05T05:31:51.797Z,72.47
2023-05-05T05:34:22.261Z,72.66
2023-05-05T05:36:53.091Z,72.71
2023-05-05T05:39:26.370Z,73.44
2023-05-05T05:41:57.282Z,73.08
2023-05-05T05:44:27.927Z,72.95
2023-05-05T05:46:58.268Z,72.65
2023-05-05T05:49:29.195Z,72.65
2023-05-05T05:51:59.625Z,72.51
2023-05-05T05:54:34.575Z,72.76
2023-05-05T05:57:07.123Z,72.65
2023-05-05T05:59:37.672Z,73.26
2023-05-05T06:02:09.894Z,73.13
2023-05-05T06:04:40.415Z,72.96
2023-05-05T06:07:10.858Z,72.52
2023-05-05T06:09:44.064Z,72.44
2023-05-05T06:12:14.676Z,71.36
2023-05-05T06:14:45.439Z,71.72
2023-05-05T06:17:15.832Z,72.18
2023-05-05T06:19:46.439Z,72.37
2023-05-05T06:22:16.982Z,72.04
2023-05-05T06:24:51.369Z,72.00
2023-05-05T06:27:22.973Z,72.34
2023-05-05T06:29:53.377Z,71.64
2023-05-05T06:32:23.766Z,71.93
2023-05-05T06:34:54.412Z,71.45
2023-05-05T06:37:24.738Z,71.00
2023-05-05T06:39:57.950Z,71.33
2023-05-05T06:42:28.396Z,71.13
2023-05-05T06:45:00.964Z,71.23
2023-05-05T06:47:31.493Z,70.69
2023-05-05T06:50:02.015Z,70.44
2023-05-05T06:52:32.656Z,69.33
2023-05-05T06:55:05.590Z,69.30
2023-05-05T06:57:36.267Z,69.29
2023-05-05T07:00:11.583Z,70.55
2023-05-05T07:02:42.299Z,70.25
2023-05-05T07:05:13.325Z,70.54
2023-05-05T07:07:54.219Z,70.56
2023-05-05T07:10:28.595Z,70.59
2023-05-05T07:12:58.991Z,70.95
2023-05-05T07:15:29.962Z,70.16
2023-05-05T07:18:00.682Z,70.64
2023-05-05T07:20:31.653Z,70.28
2023-05-05T07:23:02.033Z,70.55
2023-05-05T07:25:35.293Z,68.83
2023-05-05T07:28:06.027Z,69.10
2023-05-05T07:30:36.438Z,69.82
2023-05-05T07:33:07.228Z,69.65
2023-05-05T07:35:37.690Z,69.42
2023-05-05T07:38:08.800Z,70.14
2023-05-05T07:40:43.820Z,69.29
2023-05-05T07:43:14.271Z,68.96
2023-05-05T07:45:44.874Z,69.05
2023-05-05T07:48:15.375Z,69.24
2023-05-05T07:50:45.817Z,68.90
2023-05-05T07:53:17.229Z,69.39
2023-05-05T07:55:50.196Z,69.70
2023-05-05T07:58:20.927Z,69.63
2023-05-05T08:00:51.480Z,68.96
2023-05-05T08:03:25.076Z,70.21
2023-05-05T08:05:57.621Z,70.09
2023-05-05T08:08:28.284Z,70.12
2023-05-05T08:11:01.392Z,70.13
2023-05-05T08:13:33.049Z,69.93
2023-05-05T08:16:03.615Z,69.65
2023-05-05T08:18:35.716Z,69.65
2023-05-05T08:21:06.405Z,70.30
2023-05-05T08:23:37.686Z,70.32
2023-05-05T08:26:11.330Z,71.87
2023-05-05T08:28:42.095Z,72.02
2023-05-05T08:31:12.537Z,72.44
2023-05-05T08:33:43.353Z,73.60
2023-05-05T08:36:14.000Z,74.53
2023-05-05T08:38:44.475Z,74.55
2023-05-05T08:41:21.728Z,74.66
2023-05-05T08:43:53.177Z,75.55
2023-05-05T08:46:23.912Z,76.09
2023-05-05T08:48:58.763Z,75.61
2023-05-05T08:51:34.353Z,75.86
2023-05-05T08:54:07.079Z,75.26
2023-05-05T08:56:44.385Z,75.55
2023-05-05T08:59:16.650Z,75.58
2023-05-05T09:01:47.924Z,75.58
2023-05-05T09:04:19.346Z,75.70
2023-05-05T09:06:49.983Z,76.29
2023-05-05T09:09:20.768Z,75.07
2023-05-05T09:11:55.581Z,73.49
2023-05-05T09:14:25.765Z,74.00
2023-05-05T09:16:56.374Z,72.43
2023-05-05T09:19:26.835Z,73.06
2023-05-05T09:21:57.455Z,72.84
2023-05-05T09:24:27.824Z,72.21
2023-05-05T09:27:01.879Z,71.91
2023-05-05T09:29:32.795Z,72.59
2023-05-05T09:32:09.123Z,72.91
2023-05-05T09:34:40.317Z,71.71
2023-05-05T09:37:10.925Z,71.54
2023-05-05T09:39:57.413Z,70.63
2023-05-05T09:42:30.572Z,70.85
2023-05-05T09:45:00.992Z,70.83
2023-05-05T09:47:38.194Z,69.50
2023-05-05T09:50:11.489Z,69.93
2023-05-05T09:52:42.084Z,69.55
2023-05-05T09:55:21.188Z,68.47
2023-05-05T09:57:54.223Z,69.10
2023-05-05T10:00:25.186Z,69.52
2023-05-05T10:03:05.691Z,69.70
2023-05-05T10:05:36.358Z,65.78
2023-05-05T10:08:16.626Z,66.22
2023-05-05T10:10:53.428Z,67.69
2023-05-05T10:13:27.986Z,62.95
2023-05-05T10:16:00.705Z,61.88
2023-05-05T10:18:34.305Z,62.96
2023-05-05T10:21:06.730Z,61.27
2023-05-05T10:23:42.928Z,63.06
2023-05-05T10:26:17.656Z,63.79
2023-05-05T10:28:55.472Z,64.23
2023-05-05T10:31:33.404Z,65.20
2023-05-05T10:34:07.119Z,63.70
2023-05-05T10:36:39.068Z,63.80
2023-05-05T10:39:11.099Z,63.80
2023-05-05T10:41:41.911Z,64.25
2023-05-05T10:44:17.737Z,64.02
2023-05-05T10:46:49.157Z,62.97
2023-05-05T10:49:31.541Z,63.46
2023-05-05T10:52:13.047Z,63.77
2023-05-05T10:54:52.228Z,63.24
2023-05-05T10:57:29.063Z,62.14
2023-05-05T11:00:02.234Z,63.01
2023-05-05T11:02:33.761Z,62.37
2023-05-05T11:05:17.138Z,61.88
2023-05-05T11:07:49.438Z,62.36
2023-05-05T11:10:23.527Z,61.28
2023-05-05T11:13:22.927Z,62.18
2023-05-05T11:15:57.371Z,61.59
2023-05-05T11:18:43.623Z,61.85
2023-05-05T11:21:19.724Z,61.80
2023-05-05T11:23:54.894Z,61.31
2023-05-05T11:26:54.125Z,60.88
2023-05-05T11:29:25.027Z,61.04
2023-05-05T11:32:20.141Z,60.85
2023-05-05T11:34:53.799Z,60.81
2023-05-05T11:37:27.101Z,60.07
2023-05-05T11:40:19.016Z,59.34
2023-05-05T11:42:50.496Z,59.12
2023-05-05T11:45:26.773Z,58.42
2023-05-05T11:48:29.093Z,58.44
2023-05-05T11:51:02.503Z,58.30
2023-05-05T11:53:33.135Z,56.55
2023-05-05T11:56:11.043Z,56.44
2023-05-05T11:58:42.140Z,57.10
2023-05-05T12:01:13.443Z,56.91
2023-05-05T12:03:46.929Z,56.56
2023-05-05T12:06:17.470Z,53.73
2023-05-05T12:08:48.064Z,53.14
2023-05-05T12:11:18.523Z,53.62
2023-05-05T12:13:48.972Z,50.50
2023-05-05T12:16:20.150Z,50.94
2023-05-05T12:19:07.798Z,50.69
2023-05-05T12:21:38.827Z,49.09
2023-05-05T12:24:10.757Z,48.68
2023-05-05T12:26:41.442Z,47.77
2023-05-05T12:29:11.957Z,47.83
2023-05-05T12:31:44.480Z,48.57
2023-05-05T12:34:18.875Z,49.86
2023-05-05T12:36:49.464Z,50.94
2023-05-05T12:39:19.996Z,51.20
2023-05-05T12:41:50.745Z,51.96
2023-05-05T12:44:21.237Z,51.57
2023-05-05T12:46:54.686Z,51.44
2023-05-05T12:49:27.721Z,51.05
2023-05-05T12:52:00.378Z,51.00
2023-05-05T12:54:32.536Z,49.91
2023-05-05T12:57:14.799Z,50.30
2023-05-05T12:59:45.388Z,49.35
2023-05-05T13:02:16.470Z,48.54
2023-05-05T13:04:57.480Z,49.31
2023-05-05T13:07:27.841Z,48.89
2023-05-05T13:10:11.313Z,49.59
2023-05-05T13:12:42.080Z,49.28
2023-05-05T13:15:15.328Z,49.35
2023-05-05T13:17:45.871Z,47.45
2023-05-05T13:20:19.227Z,46.20
2023-05-05T13:22:49.566Z,45.13
2023-05-05T13:25:20.258Z,45.23
2023-05-05T13:27:50.757Z,46.27
2023-05-05T13:30:21.149Z,46.20
2023-05-05T13:32:51.659Z,45.23
2023-05-05T13:35:24.807Z,45.19
2023-05-05T13:37:55.415Z,44.56
2023-05-05T13:40:26.322Z,45.24
2023-05-05T13:42:56.849Z,44.25
2023-05-05T13:45:27.250Z,43.84
2023-05-05T13:47:57.754Z,43.06
2023-05-05T13:50:30.768Z,42.05
2023-05-05T13:53:01.303Z,42.73
2023-05-05T13:55:31.987Z,42.12
2023-05-05T13:58:02.512Z,41.40
2023-05-05T14:00:33.122Z,40.48
2023-05-05T14:03:03.778Z,41.05
2023-05-05T14:05:37.964Z,41.28
2023-05-05T14:08:08.649Z,41.86
2023-05-05T14:10:40.433Z,42.15
2023-05-05T14:13:10.903Z,42.27
2023-05-05T14:15:41.363Z,42.64
2023-05-05T14:18:11.771Z,42.43
2023-05-05T14:20:45.044Z,42.26
2023-05-05T14:23:15.505Z,43.07
2023-05-05T14:25:46.275Z,44.04
2023-05-05T14:28:16.685Z,44.26
2023-05-05T14:30:47.165Z,45.16
2023-05-05T14:33:17.521Z,45.75
2023-05-05T14:35:50.573Z,44.97
2023-05-05T14:38:21.096Z,44.53
2023-05-05T14:40:51.693Z,44.82
2023-05-05T14:43:22.074Z,45.18
2023-05-05T14:45:52.883Z,45.81
2023-05-05T14:48:23.386Z,45.87
2023-05-05T14:50:56.557Z,45.35
2023-05-05T14:53:27.274Z,45.74
2023-05-05T14:55:57.890Z,45.45
2023-05-05T14:58:28.292Z,45.95
2023-05-05T15:00:59.207Z,45.94
2023-05-05T15:03:29.815Z,45.94
2023-05-05T15:06:03.330Z,45.95
2023-05-05T15:08:33.937Z,46.34
2023-05-05T15:11:04.638Z,46.38
2023-05-05T15:13:35.622Z,46.58
2023-05-05T15:16:06.088Z,46.34
2023-05-05T15:18:36.642Z,46.43
2023-05-05T15:21:09.805Z,47.32
2023-05-05T15:23:40.170Z,46.81
2023-05-05T15:26:10.715Z,46.41
2023-05-05T15:28:41.376Z,46.89
2023-05-05T15:31:12.113Z,46.70
2023-05-05T15:33:44.824Z,46.48
2023-05-05T15:36:22.837Z,47.33
2023-05-05T15:38:53.254Z,48.00
2023-05-05T15:41:23.768Z,47.87
2023-05-05T15:43:54.257Z,47.98
2023-05-05T15:46:24.987Z,48.31
2023-05-05T15:48:55.371Z,47.94
2023-05-05T15:51:28.712Z,48.38
2023-05-05T15:53:59.616Z,48.39
2023-05-05T15:56:30.184Z,48.53
2023-05-05T15:59:00.572Z,48.97
2023-05-05T16:01:31.126Z,49.56
2023-05-05T16:04:01.542Z,51.13
2023-05-05T16:06:34.663Z,51.95
2023-05-05T16:09:05.213Z,54.52
2023-05-05T16:11:35.609Z,58.02
2023-05-05T16:14:06.251Z,59.46
2023-05-05T16:16:36.729Z,59.27
2023-05-05T16:19:07.452Z,56.93
2023-05-05T16:21:40.470Z,60.51
2023-05-05T16:24:16.212Z,63.35
2023-05-05T16:26:47.040Z,63.93
2023-05-05T16:29:17.746Z,56.95
2023-05-05T16:31:48.114Z,57.98
2023-05-05T16:34:18.547Z,57.86
2023-05-05T16:36:51.529Z,58.17
2023-05-05T16:39:21.887Z,59.08
2023-05-05T16:41:52.634Z,59.01
2023-05-05T16:44:23.074Z,59.47
2023-05-05T16:46:53.633Z,58.79
2023-05-05T16:49:24.417Z,60.59
2023-05-05T16:51:57.398Z,65.08
2023-05-05T16:54:28.048Z,68.58
2023-05-05T16:56:58.548Z,70.06
2023-05-05T16:59:30.347Z,70.25
2023-05-05T17:02:02.042Z,71.60
2023-05-05T17:04:32.733Z,73.04
2023-05-05T17:07:05.989Z,73.30
2023-05-05T17:09:36.320Z,73.09
2023-05-05T17:12:07.161Z,72.96
2023-05-05T17:14:37.568Z,72.47
2023-05-05T17:17:08.228Z,72.00
2023-05-05T17:19:38.585Z,70.73
2023-05-05T17:22:11.983Z,70.49
2023-05-05T17:24:43.189Z,70.40
2023-05-05T17:27:13.672Z,69.79
2023-05-05T17:29:44.176Z,69.88
2023-05-05T17:32:14.855Z,69.89
2023-05-05T17:34:45.334Z,70.21
2023-05-05T17:37:18.369Z,70.72
2023-05-05T17:39:48.826Z,72.20
2023-05-05T17:42:23.091Z,70.62
2023-05-05T17:44:53.693Z,71.10
2023-05-05T17:47:24.428Z,71.80
2023-05-05T17:49:58.006Z,73.11
2023-05-05T17:52:31.430Z,73.10
2023-05-05T17:55:02.049Z,72.62
2023-05-05T17:57:32.494Z,72.46
2023-05-05T18:00:07.440Z,72.62
2023-05-05T18:02:43.936Z,73.85
2023-05-05T18:05:14.585Z,73.02
2023-05-05T18:07:47.670Z,73.27
2023-05-05T18:10:18.104Z,73.14
2023-05-05T18:12:48.708Z,72.69
2023-05-05T18:15:19.325Z,72.21
2023-05-05T18:17:49.828Z,72.77
2023-05-05T18:20:20.533Z,73.22
2023-05-05T18:22:53.583Z,74.15
2023-05-05T18:25:24.281Z,74.89
2023-05-05T18:27:54.674Z,74.55
2023-05-05T18:30:25.262Z,75.24
2023-05-05T18:32:55.880Z,75.89
2023-05-05T18:35:26.272Z,75.37
2023-05-05T18:37:59.342Z,75.31
2023-05-05T18:40:29.868Z,76.31
2023-05-05T18:43:00.274Z,75.26
2023-05-05T18:45:30.859Z,74.90
2023-05-05T18:48:01.625Z,74.61
2023-05-05T18:50:33.434Z,75.15
2023-05-05T18:53:06.853Z,74.77
2023-05-05T18:55:37.286Z,75.33
2023-05-05T18:58:07.711Z,75.45
2023-05-05T19:00:38.239Z,75.76
2023-05-05T19:03:08.920Z,76.42
2023-05-05T19:05:40.827Z,77.34
2023-05-05T19:08:14.018Z,76.48
2023-05-05T19:10:44.592Z,76.79
2023-05-05T19:13:15.072Z,77.78
2023-05-05T19:15:45.615Z,79.37
2023-05-05T19:18:16.314Z,79.16
2023-05-05T19:20:46.719Z,79.71
2023-05-05T19:23:19.681Z,79.85
2023-05-05T19:25:50.120Z,80.03
2023-05-05T19:28:20.528Z,80.15
2023-05-05T19:30:51.054Z,79.94
2023-05-05T19:33:21.490Z,81.02
2023-05-05T19:35:52.136Z,81.32
2023-05-05T19:38:25.234Z,79.73
2023-05-05T19:40:56.508Z,79.76
2023-05-05T19:43:26.870Z,79.79
2023-05-05T19:45:57.512Z,80.11
2023-05-05T19:48:28.123Z,80.46
2023-05-05T19:50:58.584Z,81.09
2023-05-05T19:53:31.570Z,82.44
2023-05-05T19:56:02.498Z,83.04
2023-05-05T19:58:33.022Z,82.92
2023-05-05T20:01:03.510Z,83.74
2023-05-05T20:03:34.086Z,83.23
2023-05-05T20:06:04.729Z,83.64
2023-05-05T20:08:37.721Z,84.24
2023-05-05T20:11:08.107Z,83.81
2023-05-05T20:13:39.157Z,84.48
2023-05-05T20:16:10.350Z,83.58
2023-05-05T20:18:40.920Z,83.50
2023-05-05T20:21:11.454Z,83.65
2023-05-05T20:23:45.315Z,83.22
2023-05-05T20:26:16.075Z,84.61
2023-05-05T20:28:46.422Z,85.08
2023-05-05T20:31:17.619Z,85.25
2023-05-05T20:33:48.196Z,85.34
2023-05-05T20:36:18.998Z,85.67
2023-05-05T20:38:52.132Z,85.56
2023-05-05T20:41:22.534Z,86.00
2023-05-05T20:43:52.929Z,86.15
2023-05-05T20:46:23.348Z,86.41
2023-05-05T20:48:53.712Z,86.62
2023-05-05T20:51:24.154Z,86.45
2023-05-05T20:53:57.180Z,86.23
2023-05-05T20:56:27.549Z,86.89
2023-05-05T20:58:57.967Z,87.19
2023-05-05T21:01:28.672Z,87.02
2023-05-05T21:04:00.589Z,87.19
2023-05-05T21:06:31.018Z,87.85
2023-05-05T21:09:03.971Z,87.74
2023-05-05T21:11:34.665Z,87.58
2023-05-05T21:14:06.862Z,87.80
2023-05-05T21:16:37.337Z,88.10
2023-05-05T21:19:07.796Z,88.25
2023-05-05T21:21:38.397Z,88.94
2023-05-05T21:24:13.041Z,88.58
2023-05-05T21:26:45.819Z,87.65
2023-05-05T21:29:16.336Z,87.97
2023-05-05T21:31:46.923Z,88.80
2023-05-05T21:34:17.454Z,88.64
2023-05-05T21:36:47.869Z,88.11
2023-05-05T21:39:20.988Z,88.29
2023-05-05T21:41:51.326Z,88.82
2023-05-05T21:44:21.910Z,88.76
2023-05-05T21:46:52.242Z,88.21
2023-05-05T21:49:23.060Z,87.95
2023-05-05T21:51:53.779Z,88.90
2023-05-05T21:54:26.755Z,88.80
2023-05-05T21:56:57.172Z,88.96
2023-05-05T21:59:27.866Z,88.81
2023-05-05T22:01:58.293Z,89.37
2023-05-05T22:04:28.735Z,89.69
2023-05-05T22:06:59.218Z,89.44
2023-05-05T22:09:32.211Z,88.99
2023-05-05T22:12:02.793Z,89.53
2023-05-05T22:14:33.230Z,89.75
2023-05-05T22:17:03.752Z,90.17
2023-05-05T22:19:34.213Z,90.15
2023-05-05T22:22:04.843Z,90.41
2023-05-05T22:24:37.809Z,90.71
2023-05-05T22:27:08.271Z,91.05
2023-05-05T22:29:39.099Z,91.50
2023-05-05T22:32:09.674Z,91.31
2023-05-05T22:34:40.086Z,91.11
2023-05-05T22:37:10.441Z,91.72
2023-05-05T22:39:43.418Z,92.06
2023-05-05T22:42:13.880Z,92.47
2023-05-05T22:44:44.276Z,92.41
2023-05-05T22:47:14.750Z,92.28
2023-05-05T22:49:45.334Z,92.44
2023-05-05T22:52:15.796Z,92.00
2023-05-05T22:54:48.776Z,92.40
2023-05-05T22:57:19.173Z,92.63
2023-05-05T22:59:49.627Z,92.80
2023-05-05T23:02:20.256Z,92.39
2023-05-05T23:04:51.303Z,93.31
2023-05-05T23:07:22.051Z,93.55
2023-05-05T23:09:55.094Z,93.58
2023-05-05T23:12:25.631Z,93.39
2023-05-05T23:14:56.068Z,93.53
2023-05-05T23:17:26.613Z,93.21
2023-05-05T23:19:57.014Z,92.21
2023-05-05T23:22:27.536Z,91.62
2023-05-05T23:25:00.490Z,91.83
2023-05-05T23:27:30.933Z,92.98
2023-05-05T23:30:01.479Z,93.19
2023-05-05T23:32:32.061Z,93.24
2023-05-05T23:35:02.605Z,93.00
2023-05-05T23:37:33.115Z,92.97
2023-05-05T23:40:06.992Z,93.09
2023-05-05T23:42:37.322Z,92.94
2023-05-05T23:45:09.161Z,92.68
2023-05-05T23:47:39.805Z,92.85
2023-05-05T23:50:12.537Z,92.88
2023-05-05T23:52:42.922Z,91.33
2023-05-05T23:55:15.816Z,90.92
2023-05-05T23:57:46.300Z,90.67
